Silver Shark — T8A2060 — position and weather

sailwx.info

Track history (hours):
 
Tides and Currents Weather Stations Pressure Air Temp Water Temp Dewpoint Dewpoint Depression Visibility Wind Speed Wind Dir Waves Ship Positions

Silver Shark

Last reported at 2018-Feb-14 05:35 UTC. Time now 2018-Feb-19 18:17 UTC.
Position N 46°14' E 030°53'.

Length 167 m; draft 9.6 m.

Type: Cargo ship. MMSI: 511103000.

Date/timePositionNaut miles runAvg speedWind from/ knotsBaromVisibWave heightAir tempDewpointWater temp
2018-Feb-14 05:35N 46°14' E 030°53'2 9.9
2018-Feb-14 05:23N 46°16' E 030°54'4 9.6
2018-Feb-14 04:59N 46°19' E 030°55'5 9.5
2018-Feb-14 04:30N 46°24' E 030°55'5 9.6
2018-Feb-14 04:00N 46°29' E 030°55'4 8.4
2018-Feb-14 03:30N 46°33' E 030°57'19 9.0
2018-Feb-14 01:26N 46°34' E 031°25'8 7.8
2018-Feb-14 00:21N 46°35' E 031°37'3 8.5
2018-Feb-14 00:01N 46°36' E 031°41'4 8.7
2018-Feb-13 23:30N 46°36' E 031°47'4 8.6
2018-Feb-13 23:00N 46°37' E 031°53'4 7.8
2018-Feb-13 22:30N 46°41' E 031°56'4 7.5
2018-Feb-13 22:00N 46°44' E 031°55'4 7.3
2018-Feb-13 21:31N 46°48' E 031°53'3 6.1
2018-Feb-13 21:01N 46°50' E 031°56'4 8.3
2018-Feb-13 20:30N 46°53' E 032°00'3 6.0
2018-Feb-13 20:00N 46°56' E 032°01'1 1.7
2018-Feb-13 19:31N 46°57' E 031°60'0 0.0
2018-Feb-13 19:00N 46°57' E 031°60'0 0.0
2018-Feb-13 18:30N 46°57' E 031°60'0 0.0
2018-Feb-13 18:01N 46°57' E 031°60'0 0.0
2018-Feb-13 17:30N 46°57' E 031°60'0 0.0
2018-Feb-13 17:00N 46°57' E 031°60'0 0.0
2018-Feb-13 16:30N 46°57' E 031°60'0 0.0
2018-Feb-13 16:01N 46°57' E 031°60'0 0.0
2018-Feb-13 15:30N 46°57' E 031°60'0 0.0
2018-Feb-13 15:01N 46°57' E 031°60'0 0.0
2018-Feb-13 14:31N 46°57' E 031°60'0 0.0
2018-Feb-13 14:00N 46°57' E 031°60'0 0.0
2018-Feb-13 13:31N 46°57' E 031°60'0 0.0
2018-Feb-13 13:00N 46°57' E 031°60'0 0.0
2018-Feb-13 12:30N 46°57' E 031°60'0 0.1
2018-Feb-13 12:00N 46°57' E 031°60'0 0.0
2018-Feb-13 11:31N 46°57' E 031°60'0 0.1
2018-Feb-13 11:01N 46°57' E 031°60'0 0.0
2018-Feb-13 10:31N 46°57' E 031°60'0 0.0
2018-Feb-13 10:00N 46°57' E 031°60'0 0.0
2018-Feb-13 09:30N 46°57' E 031°60'0 0.0
2018-Feb-13 09:00N 46°57' E 031°60'0 0.0
2018-Feb-13 08:30N 46°57' E 031°60'0 0.0
2018-Feb-13 08:00N 46°57' E 031°60'0 0.0
2018-Feb-13 07:31N 46°57' E 031°60'0 0.0
2018-Feb-13 07:01N 46°57' E 031°60'0 0.0
2018-Feb-13 06:30N 46°57' E 031°60'0 0.0
2018-Feb-13 06:01N 46°57' E 031°60'0 0.0
2018-Feb-13 05:31N 46°57' E 031°60'0 0.0
2018-Feb-13 05:00N 46°57' E 031°60'0 0.0
2018-Feb-13 04:31N 46°57' E 031°60'0 0.0
2018-Feb-13 04:01N 46°57' E 031°60'0 0.0
2018-Feb-13 03:30N 46°57' E 031°60'0 0.0
2018-Feb-13 03:00N 46°57' E 031°60'0 0.0
2018-Feb-13 02:31N 46°57' E 031°60'0 0.0
2018-Feb-13 02:00N 46°57' E 031°60'0 0.0
2018-Feb-13 01:30N 46°57' E 031°60'0 0.0
2018-Feb-13 01:00N 46°57' E 031°60'0 0.0
2018-Feb-13 00:30N 46°57' E 031°60'0 0.0
2018-Feb-13 00:00N 46°57' E 031°60'0 0.0
2018-Feb-12 23:31N 46°57' E 031°60'0 0.0
2018-Feb-12 23:01N 46°57' E 031°60'0 0.0
2018-Feb-12 22:30N 46°57' E 031°60'0 0.0
2018-Feb-12 22:00N 46°57' E 031°60'0 0.0
2018-Feb-12 21:31N 46°57' E 031°60'0 0.0
2018-Feb-12 21:00N 46°57' E 031°60'0 0.0
2018-Feb-12 20:31N 46°57' E 031°60'0 0.0
2018-Feb-12 20:00N 46°57' E 031°60'0 0.0
2018-Feb-12 19:30N 46°57' E 031°60'0 0.0
2018-Feb-12 19:01N 46°57' E 031°60'0 0.0
2018-Feb-12 18:31N 46°57' E 031°60'0 0.0
2018-Feb-12 18:01N 46°57' E 031°60'0 0.0
2018-Feb-12 17:30N 46°57' E 031°60'0 0.0
2018-Feb-12 17:00N 46°57' E 031°60'0 0.0
2018-Feb-12 16:30N 46°57' E 031°60'0 0.0
2018-Feb-12 16:00N 46°57' E 031°60'0 0.0
2018-Feb-12 15:30N 46°57' E 031°60'0 0.0
2018-Feb-12 15:01N 46°57' E 031°60'0 0.0
2018-Feb-12 14:31N 46°57' E 031°60'0 0.0
2018-Feb-12 14:01N 46°57' E 031°60'0 0.0
2018-Feb-12 13:07N 46°57' E 031°60'0 0.1
2018-Feb-12 13:01N 46°57' E 031°60'0 0.0
2018-Feb-12 12:31N 46°57' E 031°60'0 0.0
2018-Feb-12 12:00N 46°57' E 031°60'0 0.0
2018-Feb-12 11:30N 46°57' E 031°60'0 0.0
2018-Feb-12 11:00N 46°57' E 031°60'0 0.0
2018-Feb-12 10:30N 46°57' E 031°60'0 0.0
2018-Feb-12 10:00N 46°57' E 031°60'0 0.0
2018-Feb-12 09:31N 46°57' E 031°60'0 0.0
2018-Feb-12 09:00N 46°57' E 031°60'0 0.0
2018-Feb-12 08:30N 46°57' E 031°60'0 0.0
2018-Feb-12 08:00N 46°57' E 031°60'0 0.0
2018-Feb-12 07:31N 46°57' E 031°60'0 0.0
2018-Feb-12 07:01N 46°57' E 031°60'0 0.0
2018-Feb-12 06:30N 46°57' E 031°60'0 0.0
2018-Feb-12 06:01N 46°57' E 031°60'0 0.0
2018-Feb-12 05:30N 46°57' E 031°60'0 0.0
2018-Feb-12 05:01N 46°57' E 031°60'0 0.0
2018-Feb-12 04:30N 46°57' E 031°60'0 0.0
2018-Feb-12 04:01N 46°57' E 031°60'0 0.0
2018-Feb-12 03:30N 46°57' E 031°60'0 0.0
2018-Feb-12 03:01N 46°57' E 031°60'0 0.0
2018-Feb-12 02:31N 46°57' E 031°60'0 0.0
2018-Feb-12 02:00N 46°57' E 031°60'0 0.0
2018-Feb-12 01:30N 46°57' E 031°60'0 0.0
2018-Feb-12 01:01N 46°57' E 031°60'0 0.0
2018-Feb-12 00:31N 46°57' E 031°60'0 0.0
2018-Feb-12 00:00N 46°57' E 031°60'0 0.0
2018-Feb-11 23:30N 46°57' E 031°60'0 0.0
2018-Feb-11 23:01N 46°57' E 031°60'0 0.0
2018-Feb-11 22:30N 46°57' E 031°60'0 0.0
2018-Feb-11 22:00N 46°57' E 031°60'0 0.0
2018-Feb-11 21:30N 46°57' E 031°60'0 0.0
2018-Feb-11 21:01N 46°57' E 031°60'0 0.0
2018-Feb-11 20:30N 46°57' E 031°60'0 0.0
2018-Feb-11 20:01N 46°57' E 031°60'0 0.0
2018-Feb-11 19:30N 46°57' E 031°60'0 0.0
2018-Feb-11 19:00N 46°57' E 031°60'0 0.0
2018-Feb-11 18:31N 46°57' E 031°60'0 0.0
2018-Feb-11 18:00N 46°57' E 031°60'0 0.0
2018-Feb-11 17:31N 46°57' E 031°60'0 0.0
2018-Feb-11 17:01N 46°57' E 031°60'0 0.0
2018-Feb-11 16:31N 46°57' E 031°60'0 0.0
2018-Feb-11 16:01N 46°57' E 031°60'0 0.0
2018-Feb-11 15:31N 46°57' E 031°60'0 0.0
2018-Feb-11 15:00N 46°57' E 031°60'0 0.0
2018-Feb-11 14:30N 46°57' E 031°60'0 0.0
2018-Feb-11 14:00N 46°57' E 031°60'0 0.0
2018-Feb-11 13:31N 46°57' E 031°60'0 0.0
2018-Feb-11 13:00N 46°57' E 031°60'0 0.0
2018-Feb-11 12:31N 46°57' E 031°60'0 0.0
2018-Feb-11 12:00N 46°57' E 031°60'0 0.0
2018-Feb-11 11:31N 46°57' E 031°60'0 0.0
2018-Feb-11 11:00N 46°57' E 031°60'0 0.0
2018-Feb-11 10:30N 46°57' E 031°60'0 0.0
2018-Feb-11 10:01N 46°57' E 031°60'0 0.0
2018-Feb-11 09:31N 46°57' E 031°60'0 0.0
2018-Feb-11 09:00N 46°57' E 031°60'0 0.0
2018-Feb-11 08:31N 46°57' E 031°60'0 0.0
2018-Feb-11 08:01N 46°57' E 031°60'0 0.0
2018-Feb-11 07:31N 46°57' E 031°60'0 0.0
2018-Feb-11 07:01N 46°57' E 031°60'0 0.0
2018-Feb-11 06:30N 46°57' E 031°60'0 0.0
2018-Feb-11 06:01N 46°57' E 031°60'0 0.0
2018-Feb-11 05:31N 46°57' E 031°60'0 0.0
2018-Feb-11 05:00N 46°57' E 031°60'0 0.0
2018-Feb-11 04:30N 46°57' E 031°60'0 0.0
2018-Feb-11 04:01N 46°57' E 031°60'0 0.0
2018-Feb-11 03:30N 46°57' E 031°60'0 0.0
2018-Feb-11 03:01N 46°57' E 031°60'0 0.0
2018-Feb-11 02:31N 46°57' E 031°60'0 0.0
2018-Feb-11 02:00N 46°57' E 031°60'0 0.0
2018-Feb-11 01:30N 46°57' E 031°60'0 0.0
2018-Feb-11 01:00N 46°57' E 031°60'0 0.0
2018-Feb-11 00:31N 46°57' E 031°60'0 0.0
2018-Feb-11 00:01N 46°57' E 031°60'0 0.0
2018-Feb-10 23:30N 46°57' E 031°60'0 0.0
2018-Feb-10 23:01N 46°57' E 031°60'0 0.0
2018-Feb-10 22:31N 46°57' E 031°60'0 0.0
2018-Feb-10 22:01N 46°57' E 031°60'0 0.0
2018-Feb-10 21:30N 46°57' E 031°60'0 0.0
2018-Feb-10 21:00N 46°57' E 031°60'0 0.0
2018-Feb-10 20:31N 46°57' E 031°60'0 0.0
2018-Feb-10 20:00N 46°57' E 031°60'0 0.0
2018-Feb-10 19:31N 46°57' E 031°60'0 0.0
2018-Feb-10 19:00N 46°57' E 031°60'0 0.0
2018-Feb-10 18:31N 46°57' E 031°60'0 0.0
2018-Feb-10 18:00N 46°57' E 031°60'0 0.0
2018-Feb-10 17:31N 46°57' E 031°60'0 0.0
2018-Feb-10 17:00N 46°57' E 031°60'0 0.0
2018-Feb-10 16:30N 46°57' E 031°60'0 0.0
2018-Feb-10 16:01N 46°57' E 031°60'0 0.0
2018-Feb-10 15:30N 46°57' E 031°60'0 0.0
2018-Feb-10 15:01N 46°57' E 031°60'0 0.0
2018-Feb-10 14:30N 46°57' E 031°60'0 0.0
2018-Feb-10 14:00N 46°57' E 031°60'0 0.0
2018-Feb-10 13:31N 46°57' E 031°60'0 0.0
2018-Feb-10 13:00N 46°57' E 031°60'0 0.0
2018-Feb-10 12:30N 46°57' E 031°60'0 0.0
2018-Feb-10 12:01N 46°57' E 031°60'0 0.0
2018-Feb-10 11:31N 46°57' E 031°60'0 0.0
2018-Feb-10 11:00N 46°57' E 031°60'0 0.0
2018-Feb-10 10:30N 46°57' E 031°60'0 0.0
2018-Feb-10 10:01N 46°57' E 031°60'0 0.0
2018-Feb-10 09:31N 46°57' E 031°60'0 0.0
2018-Feb-10 09:00N 46°57' E 031°60'0 0.0
2018-Feb-10 08:31N 46°57' E 031°60'0 0.0
2018-Feb-10 08:01N 46°57' E 031°60'0 0.0
2018-Feb-10 07:30N 46°57' E 031°60'0 0.0
2018-Feb-10 07:01N 46°57' E 031°60'0 0.0
2018-Feb-10 06:30N 46°57' E 031°60'0 0.0
2018-Feb-10 06:00N 46°57' E 031°60'0 0.0
2018-Feb-10 05:31N 46°57' E 031°60'0 0.0
2018-Feb-10 05:01N 46°57' E 031°60'0 0.0
2018-Feb-10 04:31N 46°57' E 031°60'0 0.0
2018-Feb-10 04:01N 46°57' E 031°60'0 0.0
2018-Feb-10 03:31N 46°57' E 031°60'0 0.0
2018-Feb-10 03:01N 46°57' E 031°60'0 0.0
2018-Feb-10 02:31N 46°57' E 031°60'0 0.0
2018-Feb-10 02:01N 46°57' E 031°60'0 0.0
2018-Feb-10 01:30N 46°57' E 031°60'0 0.0
2018-Feb-10 01:00N 46°57' E 031°60'0 0.0
2018-Feb-10 00:30N 46°57' E 031°60'0 0.0
2018-Feb-10 00:01N 46°57' E 031°60'0 0.0
2018-Feb-09 23:30N 46°57' E 031°60'0 0.0
2018-Feb-09 23:00N 46°57' E 031°60'0 0.0
2018-Feb-09 22:46N 46°57' E 031°60'0 0.0
2018-Feb-09 22:31N 46°57' E 031°60'0 0.0
2018-Feb-09 22:01N 46°57' E 031°60'0 0.0
2018-Feb-09 21:30N 46°57' E 031°60'0 0.0
2018-Feb-09 21:00N 46°57' E 031°60'0 0.0
2018-Feb-09 20:31N 46°57' E 031°60'0 0.0
2018-Feb-09 20:01N 46°57' E 031°60'0 0.0
2018-Feb-09 19:01N 46°57' E 031°60'0 0.0
2018-Feb-09 18:31N 46°57' E 031°60'0 0.0
2018-Feb-09 17:30N 46°57' E 031°60'0 0.0
2018-Feb-09 17:01N 46°57' E 031°60'0 0.0
2018-Feb-09 15:31N 46°57' E 031°60'0 0.0
2018-Feb-09 15:01N 46°57' E 031°60'0 0.0
2018-Feb-09 13:30N 46°57' E 031°60'0 0.0
2018-Feb-09 13:01N 46°57' E 031°60'0 0.0
2018-Feb-09 12:31N 46°57' E 031°60'0 0.0
2018-Feb-09 11:01N 46°57' E 031°60'0 0.0
2018-Feb-09 10:30N 46°57' E 031°60'0 0.0
2018-Feb-09 09:31N 46°57' E 031°60'0 0.0
2018-Feb-09 09:00N 46°57' E 031°60'0 0.0
2018-Feb-09 07:00N 46°57' E 031°60'0 0.0
2018-Feb-09 06:30N 46°57' E 031°60'0 0.0
2018-Feb-09 05:30N 46°57' E 031°60'0 0.0
2018-Feb-09 05:00N 46°57' E 031°60'0 0.0
2018-Feb-09 02:00N 46°57' E 031°60'0 0.0
2018-Feb-09 00:30N 46°57' E 031°60'0 0.0
2018-Feb-09 00:00N 46°57' E 031°60'0 0.0
2018-Feb-08 23:00N 46°57' E 031°60'0 0.0
2018-Feb-08 22:00N 46°57' E 031°60'0 0.0
2018-Feb-08 20:30N 46°57' E 031°60'0 0.0
2018-Feb-08 19:00N 46°57' E 031°60'0 0.0
2018-Feb-08 18:30N 46°57' E 031°60'0 0.0
2018-Feb-08 17:00N 46°57' E 031°60'0 0.0
2018-Feb-08 16:30N 46°57' E 031°60'0 0.0
2018-Feb-08 16:00N 46°57' E 031°60'0 0.0
2018-Feb-08 15:30N 46°57' E 031°60'0 0.0
2018-Feb-08 14:00N 46°57' E 031°60'0 0.0
2018-Feb-08 13:30N 46°57' E 031°60'0 0.0
2018-Feb-08 12:00N 46°57' E 031°60'0 0.0
2018-Feb-08 11:00N 46°57' E 031°60'0 0.0
2018-Feb-08 10:30N 46°57' E 031°60'0 0.0
2018-Feb-08 09:30N 46°57' E 031°60'0 0.0
2018-Feb-08 09:00N 46°57' E 031°60'0 0.0
2018-Feb-08 08:30N 46°57' E 031°60'0 0.0
2018-Feb-08 05:30N 46°57' E 031°60'0 0.0
2018-Feb-08 05:00N 46°57' E 031°60'0 0.0
2018-Feb-08 03:30N 46°57' E 031°60'0 0.0
2018-Feb-08 02:01N 46°57' E 031°60'0 0.0
2018-Feb-08 01:30N 46°57' E 031°60'0 0.0
2018-Feb-08 01:01N 46°57' E 031°60'0 0.0
2018-Feb-08 00:31N 46°57' E 031°60'0 0.0
2018-Feb-08 00:01N 46°57' E 031°60'0 0.0
2018-Feb-07 23:31N 46°57' E 031°60'0 0.0
2018-Feb-07 23:01N 46°57' E 031°60'0 0.0
2018-Feb-07 22:31N 46°57' E 031°60'0 0.0
2018-Feb-07 22:00N 46°57' E 031°60'0 0.0
2018-Feb-07 21:31N 46°57' E 031°60'0 0.0
2018-Feb-07 09:00N 46°57' E 031°60'0 0.0
2018-Feb-07 08:31N 46°57' E 031°60'0 0.0
2018-Feb-07 07:30N 46°57' E 031°60'0 0.0
2018-Feb-07 07:00N 46°57' E 031°60'0 0.0
2018-Feb-07 06:00N 46°57' E 031°60'0 0.0
2018-Feb-07 05:31N 46°57' E 031°60'0 0.0
2018-Feb-07 04:30N 46°57' E 031°60'0 0.0
2018-Feb-07 04:00N 46°57' E 031°60'0 0.0
2018-Feb-07 03:30N 46°57' E 031°60'0 0.0
2018-Feb-07 03:00N 46°57' E 031°60'0 0.0
2018-Feb-07 01:30N 46°57' E 031°60'0 0.0
2018-Feb-07 01:00N 46°57' E 031°60'0 0.0
2018-Feb-07 00:30N 46°57' E 031°60'0 0.0
2018-Feb-07 00:00N 46°57' E 031°60'0 0.0
2018-Feb-06 23:30N 46°57' E 031°60'0 0.0
2018-Feb-06 22:00N 46°57' E 031°60'0 0.0
2018-Feb-06 21:30N 46°57' E 031°60'0 0.0
2018-Feb-06 20:30N 46°57' E 031°60'0 0.0
2018-Feb-06 20:00N 46°57' E 031°60'0 0.0
2018-Feb-06 19:30N 46°57' E 031°60'0 0.0
2018-Feb-06 19:00N 46°57' E 031°60'0 0.0
2018-Feb-06 18:30N 46°57' E 031°60'0 0.0
2018-Feb-06 17:30N 46°57' E 031°60'0 0.0
2018-Feb-06 17:00N 46°57' E 031°60'0 0.0
2018-Feb-06 16:00N 46°57' E 031°60'0 0.0
2018-Feb-06 15:30N 46°57' E 031°60'0 0.0
2018-Feb-06 15:00N 46°57' E 031°60'0 0.0
2018-Feb-06 08:36N 46°57' E 031°60'0 0.1
2018-Feb-06 08:30N 46°57' E 031°60'0 0.0
2018-Feb-06 06:30N 46°57' E 031°60'0 0.0
2018-Feb-06 06:00N 46°57' E 031°60'0 0.0
2018-Feb-06 04:00N 46°57' E 031°60'0 0.0
2018-Feb-06 00:30N 46°57' E 031°60'0 0.0
2018-Feb-05 22:00N 46°57' E 031°60'0 0.0
2018-Feb-05 21:30N 46°57' E 031°60'0 0.0
2018-Feb-05 21:00N 46°57' E 031°60'0 0.0
2018-Feb-05 20:30N 46°57' E 031°60'42 3.7
2018-Feb-05 09:12N 46°35' E 031°07'210.5
2018-Feb-05 09:00N 46°34' E 031°04'4 8.7
2018-Feb-05 08:30N 46°33' E 030°59'3 6.3
2018-Feb-05 07:57N 46°29' E 030°57'4 8.0
2018-Feb-05 07:29N 46°26' E 030°57'4 8.4
2018-Feb-05 07:00N 46°22' E 030°60'2 2.6
2018-Feb-05 06:18N 46°21' E 031°01'0 0.0
2018-Feb-05 05:07N 46°21' E 031°01'0 0.1
2018-Feb-05 04:55N 46°21' E 031°01'0 0.0
2018-Feb-05 03:12N 46°21' E 031°01'0 0.1
2018-Feb-05 03:00N 46°21' E 031°01'0 0.0
2018-Feb-05 02:18N 46°21' E 031°01'0 0.1
2018-Feb-05 02:00N 46°21' E 031°01'0 0.1
2018-Feb-05 00:36N 46°21' E 031°01'0 0.1
2018-Feb-05 00:18N 46°21' E 031°01'0 0.0
2018-Feb-04 23:42N 46°21' E 031°01'0 0.0
2018-Feb-04 23:30N 46°21' E 031°01'0 0.0
2018-Feb-04 22:37N 46°21' E 031°01'0 0.1
2018-Feb-04 22:18N 46°21' E 031°01'0 0.0
2018-Feb-04 19:24N 46°21' E 031°01'0 0.0
2018-Feb-04 15:25N 46°21' E 031°01'0 0.0
2018-Feb-04 14:49N 46°21' E 031°01'0 0.0
2018-Feb-04 13:19N 46°21' E 031°01'0 0.0
2018-Feb-04 12:55N 46°21' E 031°01'0 0.0
2018-Feb-04 12:18N 46°21' E 031°01'0 0.0
2018-Feb-04 11:55N 46°21' E 031°01'0 0.1
2018-Feb-04 08:36N 46°21' E 031°01'0 0.1
2018-Feb-04 08:30N 46°21' E 031°01'0 0.1
2018-Feb-04 08:00N 46°21' E 031°01'0 0.0
2018-Feb-04 07:30N 46°21' E 031°01'0 0.1
2018-Feb-04 06:54N 46°21' E 031°01'0 0.0
2018-Feb-04 06:00N 46°21' E 031°01'  
Track history (hours):
 
Tides and Currents Weather Stations Pressure Air Temp Water Temp Dewpoint Dewpoint Depression Visibility Wind Speed Wind Dir Waves Ship Positions

Silver Shark

Last reported at 2018-Feb-14 05:35 UTC. Time now 2018-Feb-19 18:17 UTC.
Position N 46°14' E 030°53'.

Length 167 m; draft 9.6 m.

Type: Cargo ship. MMSI: 511103000.

Date/timePositionNaut miles runAvg speedWind from/ knotsBaromVisibWave heightAir tempDewpointWater temp
2018-Feb-14 05:35N 46°14' E 030°53'2 9.9
2018-Feb-14 05:23N 46°16' E 030°54'4 9.6
2018-Feb-14 04:59N 46°19' E 030°55'5 9.5
2018-Feb-14 04:30N 46°24' E 030°55'5 9.6
2018-Feb-14 04:00N 46°29' E 030°55'4 8.4
2018-Feb-14 03:30N 46°33' E 030°57'19 9.0
2018-Feb-14 01:26N 46°34' E 031°25'8 7.8
2018-Feb-14 00:21N 46°35' E 031°37'3 8.5
2018-Feb-14 00:01N 46°36' E 031°41'4 8.7
2018-Feb-13 23:30N 46°36' E 031°47'4 8.6
2018-Feb-13 23:00N 46°37' E 031°53'4 7.8
2018-Feb-13 22:30N 46°41' E 031°56'4 7.5
2018-Feb-13 22:00N 46°44' E 031°55'4 7.3
2018-Feb-13 21:31N 46°48' E 031°53'3 6.1
2018-Feb-13 21:01N 46°50' E 031°56'4 8.3
2018-Feb-13 20:30N 46°53' E 032°00'3 6.0
2018-Feb-13 20:00N 46°56' E 032°01'1 1.7
2018-Feb-13 19:31N 46°57' E 031°60'0 0.0
2018-Feb-13 19:00N 46°57' E 031°60'0 0.0
2018-Feb-13 18:30N 46°57' E 031°60'0 0.0
2018-Feb-13 18:01N 46°57' E 031°60'0 0.0
2018-Feb-13 17:30N 46°57' E 031°60'0 0.0
2018-Feb-13 17:00N 46°57' E 031°60'0 0.0
2018-Feb-13 16:30N 46°57' E 031°60'0 0.0
2018-Feb-13 16:01N 46°57' E 031°60'0 0.0
2018-Feb-13 15:30N 46°57' E 031°60'0 0.0
2018-Feb-13 15:01N 46°57' E 031°60'0 0.0
2018-Feb-13 14:31N 46°57' E 031°60'0 0.0
2018-Feb-13 14:00N 46°57' E 031°60'0 0.0
2018-Feb-13 13:31N 46°57' E 031°60'0 0.0
2018-Feb-13 13:00N 46°57' E 031°60'0 0.0
2018-Feb-13 12:30N 46°57' E 031°60'0 0.1
2018-Feb-13 12:00N 46°57' E 031°60'0 0.0
2018-Feb-13 11:31N 46°57' E 031°60'0 0.1
2018-Feb-13 11:01N 46°57' E 031°60'0 0.0
2018-Feb-13 10:31N 46°57' E 031°60'0 0.0
2018-Feb-13 10:00N 46°57' E 031°60'0 0.0
2018-Feb-13 09:30N 46°57' E 031°60'0 0.0
2018-Feb-13 09:00N 46°57' E 031°60'0 0.0
2018-Feb-13 08:30N 46°57' E 031°60'0 0.0
2018-Feb-13 08:00N 46°57' E 031°60'0 0.0
2018-Feb-13 07:31N 46°57' E 031°60'0 0.0
2018-Feb-13 07:01N 46°57' E 031°60'0 0.0
2018-Feb-13 06:30N 46°57' E 031°60'0 0.0
2018-Feb-13 06:01N 46°57' E 031°60'0 0.0
2018-Feb-13 05:31N 46°57' E 031°60'0 0.0
2018-Feb-13 05:00N 46°57' E 031°60'0 0.0
2018-Feb-13 04:31N 46°57' E 031°60'0 0.0
2018-Feb-13 04:01N 46°57' E 031°60'0 0.0
2018-Feb-13 03:30N 46°57' E 031°60'0 0.0
2018-Feb-13 03:00N 46°57' E 031°60'0 0.0
2018-Feb-13 02:31N 46°57' E 031°60'0 0.0
2018-Feb-13 02:00N 46°57' E 031°60'0 0.0
2018-Feb-13 01:30N 46°57' E 031°60'0 0.0
2018-Feb-13 01:00N 46°57' E 031°60'0 0.0
2018-Feb-13 00:30N 46°57' E 031°60'0 0.0
2018-Feb-13 00:00N 46°57' E 031°60'0 0.0
2018-Feb-12 23:31N 46°57' E 031°60'0 0.0
2018-Feb-12 23:01N 46°57' E 031°60'0 0.0
2018-Feb-12 22:30N 46°57' E 031°60'0 0.0
2018-Feb-12 22:00N 46°57' E 031°60'0 0.0
2018-Feb-12 21:31N 46°57' E 031°60'0 0.0
2018-Feb-12 21:00N 46°57' E 031°60'0 0.0
2018-Feb-12 20:31N 46°57' E 031°60'0 0.0
2018-Feb-12 20:00N 46°57' E 031°60'0 0.0
2018-Feb-12 19:30N 46°57' E 031°60'0 0.0
2018-Feb-12 19:01N 46°57' E 031°60'0 0.0
2018-Feb-12 18:31N 46°57' E 031°60'0 0.0
2018-Feb-12 18:01N 46°57' E 031°60'0 0.0
2018-Feb-12 17:30N 46°57' E 031°60'0 0.0
2018-Feb-12 17:00N 46°57' E 031°60'0 0.0
2018-Feb-12 16:30N 46°57' E 031°60'0 0.0
2018-Feb-12 16:00N 46°57' E 031°60'0 0.0
2018-Feb-12 15:30N 46°57' E 031°60'0 0.0
2018-Feb-12 15:01N 46°57' E 031°60'0 0.0
2018-Feb-12 14:31N 46°57' E 031°60'0 0.0
2018-Feb-12 14:01N 46°57' E 031°60'0 0.0
2018-Feb-12 13:07N 46°57' E 031°60'0 0.1
2018-Feb-12 13:01N 46°57' E 031°60'0 0.0
2018-Feb-12 12:31N 46°57' E 031°60'0 0.0
2018-Feb-12 12:00N 46°57' E 031°60'0 0.0
2018-Feb-12 11:30N 46°57' E 031°60'0 0.0
2018-Feb-12 11:00N 46°57' E 031°60'0 0.0
2018-Feb-12 10:30N 46°57' E 031°60'0 0.0
2018-Feb-12 10:00N 46°57' E 031°60'0 0.0
2018-Feb-12 09:31N 46°57' E 031°60'0 0.0
2018-Feb-12 09:00N 46°57' E 031°60'0 0.0
2018-Feb-12 08:30N 46°57' E 031°60'0 0.0
2018-Feb-12 08:00N 46°57' E 031°60'0 0.0
2018-Feb-12 07:31N 46°57' E 031°60'0 0.0
2018-Feb-12 07:01N 46°57' E 031°60'0 0.0
2018-Feb-12 06:30N 46°57' E 031°60'0 0.0
2018-Feb-12 06:01N 46°57' E 031°60'0 0.0
2018-Feb-12 05:30N 46°57' E 031°60'0 0.0
2018-Feb-12 05:01N 46°57' E 031°60'0 0.0
2018-Feb-12 04:30N 46°57' E 031°60'0 0.0
2018-Feb-12 04:01N 46°57' E 031°60'0 0.0
2018-Feb-12 03:30N 46°57' E 031°60'0 0.0
2018-Feb-12 03:01N 46°57' E 031°60'0 0.0
2018-Feb-12 02:31N 46°57' E 031°60'0 0.0
2018-Feb-12 02:00N 46°57' E 031°60'0 0.0
2018-Feb-12 01:30N 46°57' E 031°60'0 0.0
2018-Feb-12 01:01N 46°57' E 031°60'0 0.0
2018-Feb-12 00:31N 46°57' E 031°60'0 0.0
2018-Feb-12 00:00N 46°57' E 031°60'0 0.0
2018-Feb-11 23:30N 46°57' E 031°60'0 0.0
2018-Feb-11 23:01N 46°57' E 031°60'0 0.0
2018-Feb-11 22:30N 46°57' E 031°60'0 0.0
2018-Feb-11 22:00N 46°57' E 031°60'0 0.0
2018-Feb-11 21:30N 46°57' E 031°60'0 0.0
2018-Feb-11 21:01N 46°57' E 031°60'0 0.0
2018-Feb-11 20:30N 46°57' E 031°60'0 0.0
2018-Feb-11 20:01N 46°57' E 031°60'0 0.0
2018-Feb-11 19:30N 46°57' E 031°60'0 0.0
2018-Feb-11 19:00N 46°57' E 031°60'0 0.0
2018-Feb-11 18:31N 46°57' E 031°60'0 0.0
2018-Feb-11 18:00N 46°57' E 031°60'0 0.0
2018-Feb-11 17:31N 46°57' E 031°60'0 0.0
2018-Feb-11 17:01N 46°57' E 031°60'0 0.0
2018-Feb-11 16:31N 46°57' E 031°60'0 0.0
2018-Feb-11 16:01N 46°57' E 031°60'0 0.0
2018-Feb-11 15:31N 46°57' E 031°60'0 0.0
2018-Feb-11 15:00N 46°57' E 031°60'0 0.0
2018-Feb-11 14:30N 46°57' E 031°60'0 0.0
2018-Feb-11 14:00N 46°57' E 031°60'0 0.0
2018-Feb-11 13:31N 46°57' E 031°60'0 0.0
2018-Feb-11 13:00N 46°57' E 031°60'0 0.0
2018-Feb-11 12:31N 46°57' E 031°60'0 0.0
2018-Feb-11 12:00N 46°57' E 031°60'0 0.0
2018-Feb-11 11:31N 46°57' E 031°60'0 0.0
2018-Feb-11 11:00N 46°57' E 031°60'0 0.0
2018-Feb-11 10:30N 46°57' E 031°60'0 0.0
2018-Feb-11 10:01N 46°57' E 031°60'0 0.0
2018-Feb-11 09:31N 46°57' E 031°60'0 0.0
2018-Feb-11 09:00N 46°57' E 031°60'0 0.0
2018-Feb-11 08:31N 46°57' E 031°60'0 0.0
2018-Feb-11 08:01N 46°57' E 031°60'0 0.0
2018-Feb-11 07:31N 46°57' E 031°60'0 0.0
2018-Feb-11 07:01N 46°57' E 031°60'0 0.0
2018-Feb-11 06:30N 46°57' E 031°60'0 0.0
2018-Feb-11 06:01N 46°57' E 031°60'0 0.0
2018-Feb-11 05:31N 46°57' E 031°60'0 0.0
2018-Feb-11 05:00N 46°57' E 031°60'0 0.0
2018-Feb-11 04:30N 46°57' E 031°60'0 0.0
2018-Feb-11 04:01N 46°57' E 031°60'0 0.0
2018-Feb-11 03:30N 46°57' E 031°60'0 0.0
2018-Feb-11 03:01N 46°57' E 031°60'0 0.0
2018-Feb-11 02:31N 46°57' E 031°60'0 0.0
2018-Feb-11 02:00N 46°57' E 031°60'0 0.0
2018-Feb-11 01:30N 46°57' E 031°60'0 0.0
2018-Feb-11 01:00N 46°57' E 031°60'0 0.0
2018-Feb-11 00:31N 46°57' E 031°60'0 0.0
2018-Feb-11 00:01N 46°57' E 031°60'0 0.0
2018-Feb-10 23:30N 46°57' E 031°60'0 0.0
2018-Feb-10 23:01N 46°57' E 031°60'0 0.0
2018-Feb-10 22:31N 46°57' E 031°60'0 0.0
2018-Feb-10 22:01N 46°57' E 031°60'0 0.0
2018-Feb-10 21:30N 46°57' E 031°60'0 0.0
2018-Feb-10 21:00N 46°57' E 031°60'0 0.0
2018-Feb-10 20:31N 46°57' E 031°60'0 0.0
2018-Feb-10 20:00N 46°57' E 031°60'0 0.0
2018-Feb-10 19:31N 46°57' E 031°60'0 0.0
2018-Feb-10 19:00N 46°57' E 031°60'0 0.0
2018-Feb-10 18:31N 46°57' E 031°60'0 0.0
2018-Feb-10 18:00N 46°57' E 031°60'0 0.0
2018-Feb-10 17:31N 46°57' E 031°60'0 0.0
2018-Feb-10 17:00N 46°57' E 031°60'0 0.0
2018-Feb-10 16:30N 46°57' E 031°60'0 0.0
2018-Feb-10 16:01N 46°57' E 031°60'0 0.0
2018-Feb-10 15:30N 46°57' E 031°60'0 0.0
2018-Feb-10 15:01N 46°57' E 031°60'0 0.0
2018-Feb-10 14:30N 46°57' E 031°60'0 0.0
2018-Feb-10 14:00N 46°57' E 031°60'0 0.0
2018-Feb-10 13:31N 46°57' E 031°60'0 0.0
2018-Feb-10 13:00N 46°57' E 031°60'0 0.0
2018-Feb-10 12:30N 46°57' E 031°60'0 0.0
2018-Feb-10 12:01N 46°57' E 031°60'0 0.0
2018-Feb-10 11:31N 46°57' E 031°60'0 0.0
2018-Feb-10 11:00N 46°57' E 031°60'0 0.0
2018-Feb-10 10:30N 46°57' E 031°60'0 0.0
2018-Feb-10 10:01N 46°57' E 031°60'0 0.0
2018-Feb-10 09:31N 46°57' E 031°60'0 0.0
2018-Feb-10 09:00N 46°57' E 031°60'0 0.0
2018-Feb-10 08:31N 46°57' E 031°60'0 0.0
2018-Feb-10 08:01N 46°57' E 031°60'0 0.0
2018-Feb-10 07:30N 46°57' E 031°60'0 0.0
2018-Feb-10 07:01N 46°57' E 031°60'0 0.0
2018-Feb-10 06:30N 46°57' E 031°60'0 0.0
2018-Feb-10 06:00N 46°57' E 031°60'0 0.0
2018-Feb-10 05:31N 46°57' E 031°60'0 0.0
2018-Feb-10 05:01N 46°57' E 031°60'0 0.0
2018-Feb-10 04:31N 46°57' E 031°60'0 0.0
2018-Feb-10 04:01N 46°57' E 031°60'0 0.0
2018-Feb-10 03:31N 46°57' E 031°60'0 0.0
2018-Feb-10 03:01N 46°57' E 031°60'0 0.0
2018-Feb-10 02:31N 46°57' E 031°60'0 0.0
2018-Feb-10 02:01N 46°57' E 031°60'0 0.0
2018-Feb-10 01:30N 46°57' E 031°60'0 0.0
2018-Feb-10 01:00N 46°57' E 031°60'0 0.0
2018-Feb-10 00:30N 46°57' E 031°60'0 0.0
2018-Feb-10 00:01N 46°57' E 031°60'0 0.0
2018-Feb-09 23:30N 46°57' E 031°60'0 0.0
2018-Feb-09 23:00N 46°57' E 031°60'0 0.0
2018-Feb-09 22:46N 46°57' E 031°60'0 0.0
2018-Feb-09 22:31N 46°57' E 031°60'0 0.0
2018-Feb-09 22:01N 46°57' E 031°60'0 0.0
2018-Feb-09 21:30N 46°57' E 031°60'0 0.0
2018-Feb-09 21:00N 46°57' E 031°60'0 0.0
2018-Feb-09 20:31N 46°57' E 031°60'0 0.0
2018-Feb-09 20:01N 46°57' E 031°60'0 0.0
2018-Feb-09 19:01N 46°57' E 031°60'0 0.0
2018-Feb-09 18:31N 46°57' E 031°60'0 0.0
2018-Feb-09 17:30N 46°57' E 031°60'0 0.0
2018-Feb-09 17:01N 46°57' E 031°60'0 0.0
2018-Feb-09 15:31N 46°57' E 031°60'0 0.0
2018-Feb-09 15:01N 46°57' E 031°60'0 0.0
2018-Feb-09 13:30N 46°57' E 031°60'0 0.0
2018-Feb-09 13:01N 46°57' E 031°60'0 0.0
2018-Feb-09 12:31N 46°57' E 031°60'0 0.0
2018-Feb-09 11:01N 46°57' E 031°60'0 0.0
2018-Feb-09 10:30N 46°57' E 031°60'0 0.0
2018-Feb-09 09:31N 46°57' E 031°60'0 0.0
2018-Feb-09 09:00N 46°57' E 031°60'0 0.0
2018-Feb-09 07:00N 46°57' E 031°60'0 0.0
2018-Feb-09 06:30N 46°57' E 031°60'0 0.0
2018-Feb-09 05:30N 46°57' E 031°60'0 0.0
2018-Feb-09 05:00N 46°57' E 031°60'0 0.0
2018-Feb-09 02:00N 46°57' E 031°60'0 0.0
2018-Feb-09 00:30N 46°57' E 031°60'0 0.0
2018-Feb-09 00:00N 46°57' E 031°60'0 0.0
2018-Feb-08 23:00N 46°57' E 031°60'0 0.0
2018-Feb-08 22:00N 46°57' E 031°60'0 0.0
2018-Feb-08 20:30N 46°57' E 031°60'0 0.0
2018-Feb-08 19:00N 46°57' E 031°60'0 0.0
2018-Feb-08 18:30N 46°57' E 031°60'0 0.0
2018-Feb-08 17:00N 46°57' E 031°60'0 0.0
2018-Feb-08 16:30N 46°57' E 031°60'0 0.0
2018-Feb-08 16:00N 46°57' E 031°60'0 0.0
2018-Feb-08 15:30N 46°57' E 031°60'0 0.0
2018-Feb-08 14:00N 46°57' E 031°60'0 0.0
2018-Feb-08 13:30N 46°57' E 031°60'0 0.0
2018-Feb-08 12:00N 46°57' E 031°60'0 0.0
2018-Feb-08 11:00N 46°57' E 031°60'0 0.0
2018-Feb-08 10:30N 46°57' E 031°60'0 0.0
2018-Feb-08 09:30N 46°57' E 031°60'0 0.0
2018-Feb-08 09:00N 46°57' E 031°60'0 0.0
2018-Feb-08 08:30N 46°57' E 031°60'0 0.0
2018-Feb-08 05:30N 46°57' E 031°60'0 0.0
2018-Feb-08 05:00N 46°57' E 031°60'0 0.0
2018-Feb-08 03:30N 46°57' E 031°60'0 0.0
2018-Feb-08 02:01N 46°57' E 031°60'0 0.0
2018-Feb-08 01:30N 46°57' E 031°60'0 0.0
2018-Feb-08 01:01N 46°57' E 031°60'0 0.0
2018-Feb-08 00:31N 46°57' E 031°60'0 0.0
2018-Feb-08 00:01N 46°57' E 031°60'0 0.0
2018-Feb-07 23:31N 46°57' E 031°60'0 0.0
2018-Feb-07 23:01N 46°57' E 031°60'0 0.0
2018-Feb-07 22:31N 46°57' E 031°60'0 0.0
2018-Feb-07 22:00N 46°57' E 031°60'0 0.0
2018-Feb-07 21:31N 46°57' E 031°60'0 0.0
2018-Feb-07 09:00N 46°57' E 031°60'0 0.0
2018-Feb-07 08:31N 46°57' E 031°60'0 0.0
2018-Feb-07 07:30N 46°57' E 031°60'0 0.0
2018-Feb-07 07:00N 46°57' E 031°60'0 0.0
2018-Feb-07 06:00N 46°57' E 031°60'0 0.0
2018-Feb-07 05:31N 46°57' E 031°60'0 0.0
2018-Feb-07 04:30N 46°57' E 031°60'0 0.0
2018-Feb-07 04:00N 46°57' E 031°60'0 0.0
2018-Feb-07 03:30N 46°57' E 031°60'0 0.0
2018-Feb-07 03:00N 46°57' E 031°60'0 0.0
2018-Feb-07 01:30N 46°57' E 031°60'0 0.0
2018-Feb-07 01:00N 46°57' E 031°60'0 0.0
2018-Feb-07 00:30N 46°57' E 031°60'0 0.0
2018-Feb-07 00:00N 46°57' E 031°60'0 0.0
2018-Feb-06 23:30N 46°57' E 031°60'0 0.0
2018-Feb-06 22:00N 46°57' E 031°60'0 0.0
2018-Feb-06 21:30N 46°57' E 031°60'0 0.0
2018-Feb-06 20:30N 46°57' E 031°60'0 0.0
2018-Feb-06 20:00N 46°57' E 031°60'0 0.0
2018-Feb-06 19:30N 46°57' E 031°60'0 0.0
2018-Feb-06 19:00N 46°57' E 031°60'0 0.0
2018-Feb-06 18:30N 46°57' E 031°60'0 0.0
2018-Feb-06 17:30N 46°57' E 031°60'0 0.0
2018-Feb-06 17:00N 46°57' E 031°60'0 0.0
2018-Feb-06 16:00N 46°57' E 031°60'0 0.0
2018-Feb-06 15:30N 46°57' E 031°60'0 0.0
2018-Feb-06 15:00N 46°57' E 031°60'0 0.0
2018-Feb-06 08:36N 46°57' E 031°60'0 0.1
2018-Feb-06 08:30N 46°57' E 031°60'0 0.0
2018-Feb-06 06:30N 46°57' E 031°60'0 0.0
2018-Feb-06 06:00N 46°57' E 031°60'0 0.0
2018-Feb-06 04:00N 46°57' E 031°60'0 0.0
2018-Feb-06 00:30N 46°57' E 031°60'0 0.0
2018-Feb-05 22:00N 46°57' E 031°60'0 0.0
2018-Feb-05 21:30N 46°57' E 031°60'0 0.0
2018-Feb-05 21:00N 46°57' E 031°60'0 0.0
2018-Feb-05 20:30N 46°57' E 031°60'42 3.7
2018-Feb-05 09:12N 46°35' E 031°07'210.5
2018-Feb-05 09:00N 46°34' E 031°04'4 8.7
2018-Feb-05 08:30N 46°33' E 030°59'3 6.3
2018-Feb-05 07:57N 46°29' E 030°57'4 8.0
2018-Feb-05 07:29N 46°26' E 030°57'4 8.4
2018-Feb-05 07:00N 46°22' E 030°60'2 2.6
2018-Feb-05 06:18N 46°21' E 031°01'0 0.0
2018-Feb-05 05:07N 46°21' E 031°01'0 0.1
2018-Feb-05 04:55N 46°21' E 031°01'0 0.0
2018-Feb-05 03:12N 46°21' E 031°01'0 0.1
2018-Feb-05 03:00N 46°21' E 031°01'0 0.0
2018-Feb-05 02:18N 46°21' E 031°01'0 0.1
2018-Feb-05 02:00N 46°21' E 031°01'0 0.1
2018-Feb-05 00:36N 46°21' E 031°01'0 0.1
2018-Feb-05 00:18N 46°21' E 031°01'0 0.0
2018-Feb-04 23:42N 46°21' E 031°01'0 0.0
2018-Feb-04 23:30N 46°21' E 031°01'0 0.0
2018-Feb-04 22:37N 46°21' E 031°01'0 0.1
2018-Feb-04 22:18N 46°21' E 031°01'0 0.0
2018-Feb-04 19:24N 46°21' E 031°01'0 0.0
2018-Feb-04 15:25N 46°21' E 031°01'0 0.0
2018-Feb-04 14:49N 46°21' E 031°01'0 0.0
2018-Feb-04 13:19N 46°21' E 031°01'0 0.0
2018-Feb-04 12:55N 46°21' E 031°01'0 0.0
2018-Feb-04 12:18N 46°21' E 031°01'0 0.0
2018-Feb-04 11:55N 46°21' E 031°01'0 0.1
2018-Feb-04 08:36N 46°21' E 031°01'0 0.1
2018-Feb-04 08:30N 46°21' E 031°01'0 0.1
2018-Feb-04 08:00N 46°21' E 031°01'0 0.0
2018-Feb-04 07:30N 46°21' E 031°01'0 0.1
2018-Feb-04 06:54N 46°21' E 031°01'0 0.0
2018-Feb-04 06:00N 46°21' E 031°01'  

Dump ship's entire track history